Time;durP1;ratioP1;P1;durP2;ratioP2;P2;SDS_P1;SDS_P2;PMS_P1;PMS_P2;Temp;Humidity;BMP_temperature;BMP_pressure;BME280_temperature;BME280_humidity;BME280_pressure;Samples;Min_cycle;Max_cycle;Signal;HPM_P1;HPM_P2
2023/08/18 00:00:49;;;;;;;957.20;859.53;;;16.00;99.90;;;;;;5114373;28;20536;-67
2023/08/18 00:03:16;;;;;;;959.77;860.77;;;16.00;99.90;;;;;;5113289;28;20456;-67
2023/08/18 00:05:43;;;;;;;965.03;865.70;;;15.90;99.90;;;;;;5113315;28;20931;-67
2023/08/18 00:08:10;;;;;;;960.43;861.97;;;15.90;99.90;;;;;;5113215;28;20449;-67
2023/08/18 00:10:38;;;;;;;958.50;859.67;;;15.90;99.90;;;;;;5114268;28;20471;-67
2023/08/18 00:13:05;;;;;;;971.37;871.97;;;15.90;99.90;;;;;;5113078;28;20990;-67
2023/08/18 00:15:32;;;;;;;957.37;859.30;;;15.90;99.90;;;;;;5113326;28;20455;-67
2023/08/18 00:17:58;;;;;;;954.53;855.87;;;15.90;99.90;;;;;;5112777;28;20448;-67
2023/08/18 00:20:25;;;;;;;961.90;861.60;;;15.90;99.90;;;;;;5114025;28;20445;-67
2023/08/18 00:22:52;;;;;;;959.70;858.40;;;15.80;99.90;;;;;;5113423;28;20444;-67
2023/08/18 00:25:19;;;;;;;955.40;854.57;;;15.80;99.90;;;;;;5113369;28;20441;-67
2023/08/18 00:27:47;;;;;;;956.73;855.37;;;15.80;99.90;;;;;;5113191;28;20449;-68
2023/08/18 00:30:14;;;;;;;960.37;858.47;;;15.80;99.90;;;;;;5113900;28;20452;-67
2023/08/18 00:32:41;;;;;;;969.47;868.67;;;15.80;99.90;;;;;;5112917;28;20464;-67
2023/08/18 00:35:08;;;;;;;958.90;858.43;;;15.80;99.90;;;;;;5113125;28;20475;-67
2023/08/18 00:37:35;;;;;;;974.60;873.97;;;15.80;99.90;;;;;;5113151;28;20452;-67
2023/08/18 00:40:02;;;;;;;968.33;866.80;;;15.80;99.90;;;;;;5113739;28;20522;-68
2023/08/18 00:42:32;;;;;;;970.23;869.90;;;15.70;99.90;;;;;;5113118;28;20476;-67
2023/08/18 00:45:00;;;;;;;966.83;865.43;;;15.70;99.90;;;;;;5112989;28;20452;-67
2023/08/18 00:47:27;;;;;;;962.50;862.53;;;15.70;99.90;;;;;;5112947;28;20971;-67
2023/08/18 00:49:55;;;;;;;975.90;875.10;;;15.60;99.90;;;;;;5113398;28;20449;-67
2023/08/18 00:52:22;;;;;;;970.30;867.90;;;15.60;99.90;;;;;;5113289;28;20562;-67
2023/08/18 00:54:50;;;;;;;972.97;872.00;;;15.60;99.90;;;;;;5112810;28;20448;-67
2023/08/18 00:57:17;;;;;;;964.97;865.63;;;15.70;99.90;;;;;;5112862;28;20457;-68
2023/08/18 00:59:45;;;;;;;967.00;866.03;;;15.60;99.90;;;;;;5113255;28;20474;-66
2023/08/18 01:02:13;;;;;;;971.57;869.37;;;15.60;99.90;;;;;;5113429;28;20441;-67
2023/08/18 01:04:40;;;;;;;959.57;858.80;;;15.60;99.90;;;;;;5112819;28;20780;-67
2023/08/18 01:07:07;;;;;;;950.13;850.23;;;15.60;99.90;;;;;;5112927;28;20445;-67
2023/08/18 01:09:34;;;;;;;952.00;850.10;;;15.60;99.90;;;;;;5113375;28;20452;-66
2023/08/18 01:12:08;;;;;;;947.93;847.40;;;15.60;99.90;;;;;;5113594;28;20479;-67
2023/08/18 01:14:47;;;;;;;956.50;855.17;;;15.70;99.90;;;;;;5112566;28;20551;-67
2023/08/18 01:17:22;;;;;;;953.17;851.57;;;15.70;99.90;;;;;;5112983;28;20448;-66
2023/08/18 01:19:50;;;;;;;951.37;849.77;;;15.80;99.90;;;;;;5113370;28;20439;-67
2023/08/18 01:22:18;;;;;;;966.13;859.57;;;15.90;99.90;;;;;;5112948;28;20452;-67
2023/08/18 01:24:47;;;;;;;948.20;844.97;;;15.90;99.90;;;;;;5112545;28;20539;-67
2023/08/18 01:27:13;;;;;;;958.93;854.47;;;15.90;99.90;;;;;;5112642;28;20537;-67
2023/08/18 01:29:40;;;;;;;955.57;854.03;;;15.90;99.90;;;;;;5115196;28;20952;-66
2023/08/18 01:32:08;;;;;;;964.23;858.53;;;15.90;99.90;;;;;;5116362;28;20477;-68
2023/08/18 01:34:40;;;;;;;956.50;852.87;;;15.90;99.90;;;;;;5115859;28;20449;-68
2023/08/18 01:37:07;;;;;;;952.80;847.90;;;15.90;99.90;;;;;;5116152;28;20461;-68
2023/08/18 01:39:35;;;;;;;949.27;846.77;;;15.90;99.90;;;;;;5116397;28;20944;-68
2023/08/18 01:42:03;;;;;;;962.80;857.30;;;15.90;99.90;;;;;;5116536;28;20445;-67
2023/08/18 01:44:30;;;;;;;954.17;849.57;;;15.80;99.90;;;;;;5115842;28;20451;-68
2023/08/18 01:46:57;;;;;;;949.93;848.10;;;15.80;99.90;;;;;;5115961;28;20457;-67
2023/08/18 01:49:24;;;;;;;957.90;852.43;;;15.70;99.90;;;;;;5116379;28;20520;-68
2023/08/18 01:51:51;;;;;;;965.80;862.77;;;15.70;99.90;;;;;;5116069;28;20587;-66
2023/08/18 01:54:18;;;;;;;960.63;855.70;;;15.60;99.90;;;;;;5115821;28;20448;-66
2023/08/18 01:56:45;;;;;;;962.27;858.97;;;15.60;99.90;;;;;;5115474;28;20449;-67
2023/08/18 01:59:15;;;;;;;959.63;856.47;;;15.50;99.90;;;;;;5116311;28;20800;-66
2023/08/18 02:01:41;;;;;;;964.37;859.47;;;15.50;99.90;;;;;;5116064;28;20535;-66
2023/08/18 02:04:08;;;;;;;961.17;854.93;;;15.50;99.90;;;;;;5115630;28;20958;-67
2023/08/18 02:06:35;;;;;;;954.87;851.97;;;15.50;99.90;;;;;;5115494;28;20451;-66
2023/08/18 02:09:03;;;;;;;956.60;853.30;;;15.40;99.90;;;;;;5115747;28;20927;-66
2023/08/18 02:11:30;;;;;;;962.97;858.30;;;15.40;99.90;;;;;;5115965;28;20455;-66
2023/08/18 02:13:56;;;;;;;950.07;845.73;;;15.40;99.90;;;;;;5115258;28;20445;-66
2023/08/18 02:16:25;;;;;;;957.07;853.20;;;15.40;99.90;;;;;;5115291;28;20444;-66
2023/08/18 02:18:52;;;;;;;949.00;844.87;;;15.40;99.90;;;;;;5115505;28;20449;-66
2023/08/18 02:21:19;;;;;;;957.37;854.20;;;15.40;99.90;;;;;;5116138;28;20445;-66
2023/08/18 02:23:45;;;;;;;939.13;838.83;;;15.40;99.90;;;;;;5114949;28;20444;-66
2023/08/18 02:26:12;;;;;;;939.63;837.03;;;15.40;99.90;;;;;;5115389;28;20449;-66
2023/08/18 02:28:39;;;;;;;950.33;847.13;;;15.50;99.90;;;;;;5115390;28;20441;-66
2023/08/18 02:31:07;;;;;;;944.10;841.50;;;15.50;99.90;;;;;;5115686;28;20456;-66
2023/08/18 02:33:36;;;;;;;943.17;841.47;;;15.50;99.90;;;;;;5114870;28;20477;-66
2023/08/18 02:36:03;;;;;;;947.30;841.67;;;15.60;99.90;;;;;;5114951;28;20449;-66
2023/08/18 02:38:30;;;;;;;950.07;845.27;;;15.70;99.90;;;;;;5114847;28;20449;-66
2023/08/18 02:40:57;;;;;;;939.03;836.87;;;15.70;99.90;;;;;;5115377;28;20452;-66
2023/08/18 02:43:25;;;;;;;949.30;845.60;;;15.70;99.90;;;;;;5114878;28;20444;-66
2023/08/18 02:45:56;;;;;;;939.63;836.90;;;15.70;99.90;;;;;;5114882;28;20449;-67
2023/08/18 02:48:23;;;;;;;964.70;851.33;;;15.60;99.90;;;;;;5114641;28;20795;-66
2023/08/18 02:50:51;;;;;;;946.83;842.47;;;15.60;99.90;;;;;;5116062;28;20465;-66
2023/08/18 02:53:18;;;;;;;942.97;841.37;;;15.50;99.90;;;;;;5114413;28;20472;-66
2023/08/18 02:55:44;;;;;;;942.37;839.30;;;15.50;99.90;;;;;;5114654;28;20471;-66
2023/08/18 02:58:11;;;;;;;939.57;836.73;;;15.40;99.90;;;;;;5114505;28;20463;-66
2023/08/18 03:00:38;;;;;;;941.67;837.57;;;15.40;99.90;;;;;;5115734;28;20819;-66
2023/08/18 03:03:05;;;;;;;950.23;832.70;;;15.40;99.90;;;;;;5114630;28;20444;-66
2023/08/18 03:05:32;;;;;;;938.00;835.00;;;15.40;99.90;;;;;;5113643;28;20459;-66
2023/08/18 03:08:00;;;;;;;942.90;838.70;;;15.40;99.90;;;;;;5114265;28;20899;-66
2023/08/18 03:10:27;;;;;;;947.30;837.57;;;15.40;99.90;;;;;;5115387;28;20460;-66
2023/08/18 03:12:54;;;;;;;948.93;843.90;;;15.40;99.90;;;;;;5114000;28;20473;-66
2023/08/18 03:15:21;;;;;;;943.83;839.90;;;15.40;99.90;;;;;;5114178;28;20467;-66
2023/08/18 03:17:49;;;;;;;942.67;838.50;;;15.40;99.90;;;;;;5114156;28;20528;-66
2023/08/18 03:20:16;;;;;;;942.30;829.00;;;15.30;99.90;;;;;;5114908;28;20864;-66
2023/08/18 03:22:42;;;;;;;951.53;827.73;;;15.40;99.90;;;;;;5114288;28;20548;-66
2023/08/18 03:25:11;;;;;;;928.43;826.17;;;15.40;99.90;;;;;;5114180;28;20455;-66
2023/08/18 03:27:38;;;;;;;929.83;818.70;;;15.40;99.90;;;;;;5114069;28;20444;-66
2023/08/18 03:30:07;;;;;;;931.73;828.67;;;15.40;99.90;;;;;;5114587;28;20445;-66
2023/08/18 03:32:34;;;;;;;937.03;828.50;;;15.50;99.90;;;;;;5113903;28;21072;-66
2023/08/18 03:35:03;;;;;;;937.73;824.00;;;15.50;99.90;;;;;;5114017;28;20449;-66
2023/08/18 03:37:30;;;;;;;940.10;829.27;;;15.60;99.90;;;;;;5113886;28;20444;-66
2023/08/18 03:39:56;;;;;;;948.63;828.10;;;15.60;99.90;;;;;;5114326;28;20456;-66
2023/08/18 03:42:24;;;;;;;945.27;837.57;;;15.70;99.90;;;;;;5113961;28;20456;-66
2023/08/18 03:44:51;;;;;;;962.90;829.73;;;15.90;99.90;;;;;;5113574;28;20444;-67
2023/08/18 03:47:18;;;;;;;938.13;820.23;;;16.10;99.90;;;;;;5113513;28;20453;-66
2023/08/18 03:49:45;;;;;;;965.80;822.20;;;16.20;99.90;;;;;;5114172;28;20936;-67
2023/08/18 03:52:11;;;;;;;968.30;822.40;;;16.40;99.90;;;;;;5112942;28;20460;-67
2023/08/18 03:54:38;;;;;;;955.20;819.97;;;16.60;99.90;;;;;;5112949;28;20452;-67
2023/08/18 03:57:05;;;;;;;960.07;824.47;;;16.60;99.90;;;;;;5113435;28;20535;-66
2023/08/18 03:59:34;;;;;;;952.60;822.97;;;16.70;99.90;;;;;;5113780;28;20477;-66
2023/08/18 04:02:00;;;;;;;955.03;823.80;;;16.80;99.90;;;;;;5114007;28;20453;-67
2023/08/18 04:04:27;;;;;;;955.63;813.87;;;16.90;99.90;;;;;;5113425;28;20455;-67
2023/08/18 04:06:54;;;;;;;992.23;818.27;;;17.00;99.90;;;;;;5113394;28;20444;-67
2023/08/18 04:09:21;;;;;;;957.43;821.23;;;17.00;99.90;;;;;;5113970;28;20456;-67
2023/08/18 04:11:49;;;;;;;962.60;822.77;;;17.00;99.90;;;;;;5114022;28;20453;-68
2023/08/18 04:14:16;;;;;;;947.83;820.83;;;17.00;99.90;;;;;;5113248;28;20476;-67
2023/08/18 04:16:45;;;;;;;971.67;824.80;;;17.00;99.90;;;;;;5113332;28;20441;-66
2023/08/18 04:19:12;;;;;;;977.33;818.63;;;17.10;99.90;;;;;;5113360;28;20444;-67
2023/08/18 04:21:39;;;;;;;976.50;812.80;;;17.10;99.90;;;;;;5113980;28;20448;-67
2023/08/18 04:24:06;;;;;;;950.57;827.93;;;17.20;99.90;;;;;;5113106;28;20441;-67
2023/08/18 04:26:35;;;;;;;986.93;830.47;;;17.20;99.90;;;;;;5113034;28;20449;-67
2023/08/18 04:29:02;;;;;;;966.57;817.47;;;17.20;99.90;;;;;;5113667;28;20456;-67
2023/08/18 04:31:29;;;;;;;954.47;803.80;;;17.20;99.90;;;;;;5113630;28;20451;-67
2023/08/18 04:33:57;;;;;;;964.53;811.20;;;17.20;99.90;;;;;;5112940;28;20477;-67
2023/08/18 04:36:24;;;;;;;959.33;802.17;;;17.20;99.90;;;;;;5113046;28;20449;-67
2023/08/18 04:38:51;;;;;;;959.37;811.97;;;17.30;99.90;;;;;;5113372;28;20812;-67
2023/08/18 04:41:18;;;;;;;991.33;793.10;;;17.30;99.90;;;;;;5113787;28;20448;-67
2023/08/18 04:43:45;;;;;;;985.63;799.77;;;17.30;99.90;;;;;;5112743;28;20441;-67
2023/08/18 04:46:12;;;;;;;975.37;799.37;;;17.30;99.90;;;;;;5113120;28;20455;-66
2023/08/18 04:48:38;;;;;;;980.80;801.30;;;17.30;99.90;;;;;;5113051;28;20453;-67
2023/08/18 04:51:07;;;;;;;962.33;801.13;;;17.30;99.90;;;;;;5113498;28;20459;-67
2023/08/18 04:53:33;;;;;;;964.00;796.53;;;17.40;99.90;;;;;;5112653;28;20507;-67
2023/08/18 04:56:02;;;;;;;953.50;800.20;;;17.40;99.90;;;;;;5112798;28;20474;-68
2023/08/18 04:58:29;;;;;;;1004.90;815.90;;;17.40;99.90;;;;;;5112800;28;20539;-67
2023/08/18 05:00:59;;;;;;;997.83;834.33;;;17.40;99.90;;;;;;5113680;28;20445;-68
2023/08/18 05:03:26;;;;;;;973.70;817.87;;;17.50;99.90;;;;;;5114845;28;20444;-67
2023/08/18 05:06:02;;;;;;;989.67;819.70;;;17.40;99.90;;;;;;5116540;28;20448;-67
2023/08/18 05:08:31;;;;;;;996.60;813.30;;;17.50;99.90;;;;;;5116961;28;20439;-67
2023/08/18 05:11:03;;;;;;;975.53;817.00;;;17.50;99.90;;;;;;5117496;28;20471;-67
2023/08/18 05:13:30;;;;;;;975.93;822.20;;;17.60;99.90;;;;;;5116422;28;20465;-67
2023/08/18 05:15:57;;;;;;;973.73;813.63;;;17.60;99.90;;;;;;5116608;28;20528;-67
2023/08/18 05:18:23;;;;;;;986.47;828.47;;;17.60;99.90;;;;;;5116577;28;20448;-67
2023/08/18 05:20:50;;;;;;;972.37;833.23;;;17.70;99.90;;;;;;5117376;28;20449;-67
2023/08/18 05:23:18;;;;;;;932.23;826.90;;;17.70;99.90;;;;;;5116290;28;20936;-68
2023/08/18 05:25:48;;;;;;;940.37;830.37;;;17.70;99.90;;;;;;5116612;28;20511;-67
2023/08/18 05:28:15;;;;;;;932.40;828.97;;;17.70;99.90;;;;;;5116165;28;20451;-67
2023/08/18 05:30:46;;;;;;;935.60;832.87;;;17.80;99.90;;;;;;5116942;28;21065;-67
2023/08/18 05:33:12;;;;;;;923.00;820.73;;;17.80;99.90;;;;;;5116563;28;20468;-67
2023/08/18 05:35:39;;;;;;;903.17;804.37;;;17.90;99.90;;;;;;5116259;28;20459;-67
2023/08/18 05:38:10;;;;;;;915.70;816.63;;;17.90;99.90;;;;;;5116174;28;20449;-66
2023/08/18 05:40:37;;;;;;;917.97;817.57;;;18.00;99.90;;;;;;5117461;28;20433;-66
2023/08/18 05:43:06;;;;;;;920.80;820.00;;;18.10;99.90;;;;;;5116142;28;20445;-67
2023/08/18 05:45:36;;;;;;;926.90;826.97;;;18.10;99.90;;;;;;5115392;28;20453;-67
2023/08/18 05:48:03;;;;;;;923.53;826.07;;;18.10;99.90;;;;;;5115095;28;20476;-67
2023/08/18 05:50:30;;;;;;;922.77;827.97;;;18.10;99.90;;;;;;5115185;28;20448;-64
2023/08/18 05:52:57;;;;;;;913.33;821.97;;;18.00;99.90;;;;;;5115348;28;20480;-65
2023/08/18 05:55:24;;;;;;;920.30;829.10;;;18.00;99.90;;;;;;5114650;28;20455;-65
2023/08/18 05:57:52;;;;;;;916.37;824.57;;;18.00;99.90;;;;;;5114773;28;20449;-66
2023/08/18 06:00:21;;;;;;;913.63;823.40;;;18.00;99.90;;;;;;5116078;28;20451;-66
2023/08/18 06:02:48;;;;;;;920.73;831.07;;;18.10;99.90;;;;;;5114863;28;20459;-65
2023/08/18 06:05:15;;;;;;;916.10;825.03;;;18.10;99.90;;;;;;5115229;28;20445;-65
2023/08/18 06:07:41;;;;;;;907.03;816.60;;;18.20;99.90;;;;;;5115317;28;20830;-65
2023/08/18 06:10:11;;;;;;;905.47;820.50;;;18.30;99.90;;;;;;5115921;28;20543;-66
2023/08/18 06:12:38;;;;;;;903.90;819.97;;;18.30;99.90;;;;;;5115655;28;20544;-65
2023/08/18 06:15:07;;;;;;;880.97;800.20;;;18.50;99.90;;;;;;5114472;28;20449;-65
2023/08/18 06:17:35;;;;;;;883.37;805.33;;;18.50;99.90;;;;;;5114776;28;20445;-66
2023/08/18 06:20:02;;;;;;;885.03;806.70;;;18.40;99.90;;;;;;5115226;28;20443;-64
2023/08/18 06:22:29;;;;;;;917.60;832.90;;;18.40;99.90;;;;;;5113761;28;20915;-66
2023/08/18 06:24:56;;;;;;;877.77;804.90;;;18.40;99.90;;;;;;5100562;28;20194;-66
2023/08/18 06:27:23;;;;;;;896.10;820.83;;;18.40;99.90;;;;;;5093959;28;20454;-65
2023/08/18 06:29:50;;;;;;;890.67;813.73;;;18.50;99.90;;;;;;5094726;28;20468;-65
2023/08/18 06:32:16;;;;;;;895.50;820.60;;;18.80;99.90;;;;;;5094809;28;20446;-65
2023/08/18 06:34:45;;;;;;;893.47;821.67;;;18.90;99.90;;;;;;5093636;28;20480;-65
2023/08/18 06:37:12;;;;;;;883.80;818.30;;;19.00;99.90;;;;;;5093835;28;20454;-65
2023/08/18 06:39:38;;;;;;;886.63;822.77;;;19.10;99.90;;;;;;5095030;28;20450;-65
2023/08/18 06:42:05;;;;;;;891.27;828.13;;;19.10;99.90;;;;;;5094483;28;20450;-64
2023/08/18 06:44:34;;;;;;;893.07;830.00;;;19.10;99.90;;;;;;5093814;28;20452;-64
2023/08/18 06:47:01;;;;;;;887.10;825.80;;;19.10;99.90;;;;;;5093579;28;20456;-67
2023/08/18 06:49:28;;;;;;;875.03;818.30;;;19.20;99.90;;;;;;5094114;28;20218;-67
2023/08/18 06:51:56;;;;;;;785.00;739.00;;;19.40;99.90;;;;;;5094199;28;20468;-68
2023/08/18 06:54:23;;;;;;;675.27;640.53;;;19.50;99.90;;;;;;5092785;28;20474;-60
2023/08/18 06:56:50;;;;;;;701.97;664.17;;;19.50;99.90;;;;;;5093086;28;20464;-60
2023/08/18 06:59:17;;;;;;;614.97;583.77;;;19.60;99.90;;;;;;5093760;28;20823;-60
2023/08/18 07:01:43;;;;;;;610.87;570.47;;;19.70;99.90;;;;;;5093275;28;20472;-60
2023/08/18 07:04:12;;;;;;;451.03;426.10;;;19.70;99.90;;;;;;5092614;28;20441;-60
2023/08/18 07:06:44;;;;;;;447.03;427.20;;;19.70;99.90;;;;;;5093462;28;20453;-60
2023/08/18 07:09:12;;;;;;;414.60;396.20;;;19.80;99.90;;;;;;5093353;28;20452;-60
2023/08/18 07:11:39;;;;;;;407.70;389.70;;;19.90;99.90;;;;;;5093252;28;20449;-60
2023/08/18 07:14:06;;;;;;;325.50;311.37;;;20.10;99.90;;;;;;5092726;28;20488;-60
2023/08/18 07:16:33;;;;;;;320.17;306.37;;;20.30;99.90;;;;;;5093006;28;21032;-61
2023/08/18 07:19:00;;;;;;;253.23;242.47;;;20.30;99.90;;;;;;5093235;28;20945;-60
2023/08/18 07:21:27;;;;;;;245.83;235.30;;;20.50;99.90;;;;;;5093105;28;20450;-60
2023/08/18 07:23:54;;;;;;;155.03;148.03;;;20.70;99.90;;;;;;5093013;28;20446;-60
2023/08/18 07:26:22;;;;;;;124.80;118.70;;;20.80;99.90;;;;;;5093366;28;20452;-60
2023/08/18 07:28:48;;;;;;;87.97;83.17;;;21.00;99.90;;;;;;5093083;28;20952;-60
2023/08/18 07:31:15;;;;;;;68.87;64.47;;;21.20;99.90;;;;;;5093131;28;20446;-60
2023/08/18 07:33:42;;;;;;;43.50;40.17;;;21.40;99.90;;;;;;5093066;28;20477;-60
2023/08/18 07:36:09;;;;;;;41.63;38.20;;;21.50;99.90;;;;;;5092988;28;20450;-60
2023/08/18 07:38:36;;;;;;;36.37;32.77;;;21.80;99.90;;;;;;5092417;28;20452;-60
2023/08/18 07:41:03;;;;;;;26.37;23.70;;;22.20;99.90;;;;;;5092585;28;20449;-60
2023/08/18 07:43:31;;;;;;;24.57;21.97;;;22.50;99.90;;;;;;5092745;28;20442;-60
2023/08/18 07:45:58;;;;;;;28.03;21.60;;;22.60;99.90;;;;;;5092973;28;20452;-60
2023/08/18 07:48:25;;;;;;;25.37;22.77;;;22.70;99.90;;;;;;5092896;28;20563;-60
2023/08/18 07:50:52;;;;;;;25.00;18.70;;;23.00;99.90;;;;;;5092451;28;20464;-60
2023/08/18 07:53:19;;;;;;;24.20;20.53;;;22.90;99.90;;;;;;5092775;28;20452;-60
2023/08/18 07:55:47;;;;;;;28.37;20.07;;;23.20;99.90;;;;;;5092830;28;20458;-60
2023/08/18 07:58:14;;;;;;;22.07;18.63;;;23.50;99.90;;;;;;5092416;28;20450;-60
2023/08/18 08:00:42;;;;;;;25.50;19.00;;;23.70;99.90;;;;;;5092407;28;20968;-60
2023/08/18 08:03:09;;;;;;;22.90;18.63;;;23.60;99.90;;;;;;5092306;28;20510;-60
2023/08/18 08:05:35;;;;;;;25.37;21.23;;;23.70;99.90;;;;;;5092522;28;20835;-61
2023/08/18 08:08:03;;;;;;;21.00;18.13;;;23.80;99.90;;;;;;5092342;28;20460;-60
2023/08/18 08:10:30;;;;;;;24.73;21.07;;;24.00;99.90;;;;;;5092275;28;20507;-61
2023/08/18 08:12:57;;;;;;;22.30;18.83;;;24.50;99.90;;;;;;5092320;28;20822;-61
2023/08/18 08:15:23;;;;;;;24.13;19.70;;;24.50;99.90;;;;;;5091976;28;20473;-62
2023/08/18 08:17:52;;;;;;;23.83;20.20;;;24.50;99.90;;;;;;5092378;28;20817;-61
2023/08/18 08:20:18;;;;;;;23.63;18.43;;;24.50;99.90;;;;;;5092512;28;20473;-61
2023/08/18 08:22:49;;;;;;;18.67;16.10;;;25.20;99.90;;;;;;5092287;28;20453;-62
2023/08/18 08:25:17;;;;;;;19.70;16.77;;;25.20;97.20;;;;;;5092614;28;20806;-61
2023/08/18 08:27:44;;;;;;;21.77;18.27;;;25.20;97.20;;;;;;5092317;28;21166;-61
2023/08/18 08:30:12;;;;;;;19.83;16.20;;;25.20;97.20;;;;;;5092178;28;20556;-61
2023/08/18 08:32:39;;;;;;;20.27;14.53;;;25.30;97.30;;;;;;5091864;28;20456;-62
2023/08/18 08:35:08;;;;;;;20.37;15.83;;;25.30;97.30;;;;;;5106103;28;20487;-62
2023/08/18 08:37:35;;;;;;;16.87;13.73;;;25.40;90.40;;;;;;5112906;28;20944;-62
2023/08/18 08:40:02;;;;;;;21.33;16.20;;;25.40;90.30;;;;;;5116205;28;20449;-62
2023/08/18 08:42:28;;;;;;;17.67;15.33;;;25.40;93.90;;;;;;5116142;28;20448;-62
2023/08/18 08:44:55;;;;;;;19.40;15.33;;;25.30;93.80;;;;;;5115532;28;20445;-61
2023/08/18 08:47:23;;;;;;;17.80;15.03;;;25.70;94.60;;;;;;5115858;28;20457;-60
2023/08/18 08:49:58;;;;;;;17.97;15.00;;;25.80;96.60;;;;;;5115473;27;20455;-60
2023/08/18 08:52:31;;;;;;;16.20;14.17;;;26.20;92.40;;;;;;5115534;28;20448;-60
2023/08/18 08:55:00;;;;;;;16.90;14.13;;;27.00;92.30;;;;;;5115796;28;20477;-60
2023/08/18 08:57:27;;;;;;;16.53;11.97;;;27.20;92.50;;;;;;5115629;28;20454;-60
2023/08/18 08:59:55;;;;;;;14.37;11.53;;;27.70;91.00;;;;;;5116384;28;20450;-60
2023/08/18 09:02:22;;;;;;;16.80;12.70;;;28.00;71.90;;;;;;5115957;28;20445;-61
2023/08/18 09:04:49;;;;;;;16.00;10.90;;;27.60;75.80;;;;;;5115381;28;20501;-61
2023/08/18 09:07:16;;;;;;;16.53;11.23;;;28.00;76.70;;;;;;5115815;28;20446;-60
2023/08/18 09:09:45;;;;;;;19.37;11.73;;;28.20;71.20;;;;;;5116035;28;20452;-61
2023/08/18 09:12:12;;;;;;;12.70;11.30;;;28.50;68.80;;;;;;5115826;28;20453;-61
2023/08/18 09:14:40;;;;;;;18.33;11.03;;;29.30;61.80;;;;;;5115679;28;20476;-61
2023/08/18 09:17:07;;;;;;;13.00;10.50;;;29.40;61.00;;;;;;5115859;28;20448;-60
2023/08/18 09:19:34;;;;;;;14.63;9.77;;;29.90;65.50;;;;;;5116120;28;20455;-58
2023/08/18 09:22:03;;;;;;;12.57;10.43;;;29.80;59.50;;;;;;5115803;28;20902;-58
2023/08/18 09:24:32;;;;;;;20.20;12.23;;;30.00;61.40;;;;;;5115665;28;20531;-59
2023/08/18 09:27:08;;;;;;;12.97;9.47;;;29.60;52.30;;;;;;5116026;28;20459;-59
2023/08/18 09:29:36;;;;;;;11.77;9.93;;;30.20;50.10;;;;;;5115898;27;20498;-59
2023/08/18 09:32:03;;;;;;;13.83;11.20;;;30.60;53.00;;;;;;5115665;28;20455;-58
2023/08/18 09:34:31;;;;;;;19.53;11.43;;;30.80;44.10;;;;;;5115531;28;20817;-59
2023/08/18 09:36:58;;;;;;;14.80;11.60;;;30.60;43.90;;;;;;5115602;28;20445;-59
2023/08/18 09:39:26;;;;;;;12.70;11.13;;;29.50;43.30;;;;;;5115014;28;20453;-59
2023/08/18 09:41:54;;;;;;;22.43;12.97;;;30.00;47.10;;;;;;5115353;28;20831;-59
2023/08/18 09:44:23;;;;;;;16.57;14.10;;;29.60;43.20;;;;;;5115173;28;20449;-59
2023/08/18 09:46:54;;;;;;;16.97;13.60;;;30.20;43.70;;;;;;5115450;28;20796;-59
2023/08/18 09:49:22;;;;;;;14.40;12.70;;;30.60;43.90;;;;;;5114228;28;20460;-59
2023/08/18 09:51:52;;;;;;;15.50;12.47;;;30.50;43.90;;;;;;5115216;28;20459;-59
2023/08/18 09:54:21;;;;;;;17.07;11.50;;;29.70;43.30;;;;;;5115255;28;20469;-59
2023/08/18 09:56:51;;;;;;;13.83;11.90;;;29.80;43.40;;;;;;5115472;28;20451;-59
2023/08/18 09:59:26;;;;;;;17.03;12.63;;;29.80;43.40;;;;;;5115282;28;20451;-59
2023/08/18 10:01:54;;;;;;;14.90;12.13;;;30.30;39.10;;;;;;5115185;28;20445;-59
2023/08/18 10:04:24;;;;;;;14.07;11.70;;;30.80;37.20;;;;;;5114907;28;20451;-59
2023/08/18 10:06:52;;;;;;;13.33;10.60;;;31.60;35.40;;;;;;5115319;28;20449;-59
2023/08/18 10:09:20;;;;;;;12.57;10.53;;;32.10;30.60;;;;;;5115084;28;20449;-59
2023/08/18 10:11:47;;;;;;;18.10;10.53;;;32.40;29.50;;;;;;5115041;28;20456;-59
2023/08/18 10:14:15;;;;;;;12.80;10.67;;;33.00;27.70;;;;;;5114436;28;20455;-59
2023/08/18 10:16:46;;;;;;;11.05;7.70;;;32.90;22.70;;;;;;5113836;28;20453;-61
2023/08/18 10:19:12;;;;;;;11.50;7.67;;;32.90;20.20;;;;;;5115859;28;20184;-60
2023/08/18 10:21:39;;;;;;;9.03;7.30;;;33.00;20.20;;;;;;5115744;28;20518;-60
2023/08/18 10:24:07;;;;;;;12.00;8.30;;;33.00;20.20;;;;;;5114030;27;20449;-60
2023/08/18 10:26:36;;;;;;;9.30;7.10;;;33.00;20.20;;;;;;5114913;27;20448;-60
2023/08/18 10:29:15;;;;;;;10.13;7.97;;;33.30;20.30;;;;;;5115179;28;20449;-60
2023/08/18 10:31:49;;;;;;;10.80;8.30;;;33.60;12.90;;;;;;5115917;28;20432;-60
2023/08/18 10:34:23;;;;;;;11.00;8.73;;;33.60;20.50;;;;;;5114578;28;20452;-60
2023/08/18 10:36:58;;;;;;;13.03;9.60;;;33.90;13.00;;;;;;5114725;28;20446;-60
2023/08/18 10:39:29;;;;;;;11.47;9.73;;;33.10;20.20;;;;;;5115594;28;20471;-61
2023/08/18 10:42:08;;;;;;;13.20;11.53;;;32.70;13.20;;;;;;5115377;28;20463;-60
2023/08/18 10:44:35;;;;;;;13.50;10.20;;;32.10;15.50;;;;;;5114361;28;20452;-60
2023/08/18 10:47:24;;;;;;;15.10;12.13;;;32.70;20.00;;;;;;5114592;28;20427;-60
2023/08/18 10:49:51;;;;;;;12.33;10.63;;;33.40;16.60;;;;;;5114988;28;20449;-60
2023/08/18 10:52:18;;;;;;;16.30;12.90;;;32.30;19.80;;;;;;5114886;28;20446;-60
2023/08/18 10:54:44;;;;;;;14.03;10.20;;;32.30;13.80;;;;;;5114263;28;20509;-60
2023/08/18 10:57:11;;;;;;;14.60;11.30;;;32.20;19.70;;;;;;5114757;28;20449;-61
2023/08/18 10:59:38;;;;;;;13.20;10.10;;;32.30;19.80;;;;;;5114579;28;20453;-61
2023/08/18 11:02:07;;;;;;;13.23;11.70;;;32.50;19.90;;;;;;5114501;28;20954;-61
2023/08/18 11:04:34;;;;;;;16.67;12.00;;;33.10;13.90;;;;;;5114140;28;20445;-61
2023/08/18 11:07:01;;;;;;;18.60;13.67;;;32.80;14.60;;;;;;5114321;28;20536;-61
2023/08/18 11:09:29;;;;;;;20.23;11.80;;;33.30;13.40;;;;;;5114775;28;20445;-61
2023/08/18 11:11:55;;;;;;;13.93;12.10;;;34.20;13.20;;;;;;5114954;28;20445;-61
2023/08/18 11:14:22;;;;;;;14.27;12.07;;;33.50;12.00;;;;;;5114110;28;20427;-62
2023/08/18 11:16:49;;;;;;;16.93;13.90;;;33.50;8.40;;;;;;5114132;28;20791;-62
2023/08/18 11:19:17;;;;;;;16.03;12.23;;;32.50;12.20;;;;;;5114270;28;20444;-62
2023/08/18 11:21:44;;;;;;;13.90;11.77;;;33.20;12.60;;;;;;5114723;28;20467;-62
2023/08/18 11:24:11;;;;;;;15.53;12.13;;;33.20;10.60;;;;;;5113731;28;20448;-62
2023/08/18 11:26:39;;;;;;;12.77;11.47;;;34.10;7.10;;;;;;5114195;28;20441;-62
2023/08/18 11:29:07;;;;;;;13.47;10.43;;;34.50;5.50;;;;;;5114384;28;20456;-62
2023/08/18 11:31:33;;;;;;;13.47;11.37;;;34.20;5.30;;;;;;5114467;28;20430;-61
2023/08/18 11:34:00;;;;;;;16.97;10.77;;;34.00;5.20;;;;;;5113714;28;20449;-62
2023/08/18 11:36:33;;;;;;;12.20;10.53;;;34.20;5.30;;;;;;5113748;28;20480;-62
2023/08/18 11:39:02;;;;;;;13.60;10.30;;;34.30;5.40;;;;;;5114254;28;20804;-61
2023/08/18 11:41:36;;;;;;;12.20;9.80;;;33.90;5.10;;;;;;5114651;28;20515;-62
2023/08/18 11:44:04;;;;;;;13.30;9.03;;;33.60;5.00;;;;;;5113356;28;20920;-61
2023/08/18 11:46:31;;;;;;;10.30;8.47;;;34.20;5.30;;;;;;5113671;28;21010;-61
2023/08/18 11:49:00;;;;;;;12.60;9.40;;;34.60;2.20;;;;;;5113799;28;20561;-61
2023/08/18 11:51:27;;;;;;;12.93;9.57;;;35.20;1.00;;;;;;5114254;28;20427;-61
2023/08/18 11:53:55;;;;;;;9.37;8.17;;;35.60;1.00;;;;;;5113519;28;20451;-61
2023/08/18 11:56:25;;;;;;;11.27;8.50;;;36.10;1.00;;;;;;5112925;28;20476;-61
2023/08/18 11:58:52;;;;;;;10.10;8.67;;;36.70;1.00;;;;;;5113531;28;20449;-61
2023/08/18 12:01:21;;;;;;;10.23;8.00;;;36.70;1.00;;;;;;5113889;28;20455;-61
2023/08/18 12:03:57;;;;;;;11.20;8.70;;;37.30;1.00;;;;;;5111361;28;20921;-61
2023/08/18 12:06:25;;;;;;;10.60;7.37;;;37.60;1.00;;;;;;5112848;28;20476;-61
2023/08/18 12:08:52;;;;;;;14.50;7.63;;;37.30;1.00;;;;;;5113049;28;20993;-61
2023/08/18 12:11:20;;;;;;;12.60;7.30;;;37.20;1.00;;;;;;5113931;28;20445;-61
2023/08/18 12:13:47;;;;;;;9.23;7.10;;;37.10;1.00;;;;;;5112207;28;20441;-60
2023/08/18 12:16:14;;;;;;;11.50;6.67;;;36.00;1.00;;;;;;5113209;28;20475;-60
2023/08/18 12:18:41;;;;;;;10.13;7.23;;;36.40;1.00;;;;;;5113154;28;20440;-60
2023/08/18 12:21:08;;;;;;;12.20;7.90;;;35.70;1.00;;;;;;5113880;28;20441;-60